createdAt,value
2022-12-04T00:01:26.227Z,11.20
2022-12-04T00:04:01.134Z,11.35
2022-12-04T00:06:28.832Z,10.75
2022-12-04T00:08:56.455Z,11.30
2022-12-04T00:11:27.422Z,10.02
2022-12-04T00:13:55.032Z,12.52
2022-12-04T00:16:25.959Z,13.00
2022-12-04T00:18:53.563Z,10.32
2022-12-04T00:21:22.562Z,11.50
2022-12-04T00:23:50.526Z,11.15
2022-12-04T00:26:21.810Z,12.00
2022-12-04T00:28:49.328Z,10.82
2022-12-04T00:31:20.991Z,12.18
2022-12-04T00:33:47.865Z,12.43
2022-12-04T00:36:19.267Z,12.25
2022-12-04T00:38:46.188Z,10.80
2022-12-04T00:41:16.965Z,11.27
2022-12-04T00:43:45.629Z,13.00
2022-12-04T00:46:13.228Z,13.13
2022-12-04T00:48:40.498Z,12.68
2022-12-04T00:51:11.964Z,10.48
2022-12-04T00:53:39.222Z,11.75
2022-12-04T00:56:09.503Z,11.23
2022-12-04T00:58:36.362Z,11.98
2022-12-04T01:01:10.215Z,11.93
2022-12-04T01:03:37.376Z,12.35
2022-12-04T01:06:05.898Z,11.85
2022-12-04T01:08:33.363Z,12.63
2022-12-04T01:11:00.320Z,13.00
2022-12-04T01:13:27.236Z,12.93
2022-12-04T01:15:53.979Z,12.60
2022-12-04T01:18:20.720Z,12.40
2022-12-04T01:20:50.043Z,12.30
2022-12-04T01:23:17.715Z,12.20
2022-12-04T01:25:55.978Z,12.80
2022-12-04T01:28:23.711Z,11.60
2022-12-04T01:31:10.006Z,11.50
2022-12-04T01:33:38.050Z,11.98
2022-12-04T01:36:08.126Z,10.23
2022-12-04T01:38:36.467Z,11.70
2022-12-04T01:41:04.524Z,12.32
2022-12-04T01:43:34.043Z,12.18
2022-12-04T01:46:02.768Z,11.38
2022-12-04T01:48:33.612Z,11.93
2022-12-04T01:51:20.985Z,11.90
2022-12-04T01:53:59.464Z,11.80
2022-12-04T01:56:36.092Z,11.63
2022-12-04T01:59:03.792Z,11.77
2022-12-04T02:01:40.785Z,12.10
2022-12-04T02:04:07.582Z,10.30
2022-12-04T02:06:34.356Z,12.15
2022-12-04T02:09:01.343Z,10.40
2022-12-04T02:11:42.026Z,11.15
2022-12-04T02:14:38.625Z,12.80
2022-12-04T02:17:27.566Z,13.02
2022-12-04T02:20:09.607Z,11.43
2022-12-04T02:23:18.546Z,12.32
2022-12-04T02:26:22.576Z,13.07
2022-12-04T02:28:51.945Z,10.68
2022-12-04T02:31:23.988Z,13.43
2022-12-04T02:34:05.588Z,13.07
2022-12-04T02:36:41.674Z,10.47
2022-12-04T02:39:21.168Z,12.65
2022-12-04T02:42:15.728Z,11.18
2022-12-04T02:44:56.814Z,11.35
2022-12-04T02:47:25.430Z,13.00
2022-12-04T02:50:03.908Z,12.52
2022-12-04T02:52:41.340Z,13.43
2022-12-04T02:55:18.808Z,13.02
2022-12-04T02:57:51.238Z,13.35
2022-12-04T03:00:19.147Z,13.30
2022-12-04T03:02:59.849Z,10.48
2022-12-04T03:05:35.296Z,13.40
2022-12-04T03:08:09.254Z,12.98
2022-12-04T03:10:47.852Z,12.40
2022-12-04T03:13:37.840Z,12.98
2022-12-04T03:16:18.871Z,13.65
2022-12-04T03:18:59.247Z,12.38
2022-12-04T03:21:33.292Z,13.20
2022-12-04T03:24:15.237Z,12.57
2022-12-04T03:26:55.947Z,11.10
2022-12-04T03:29:57.848Z,11.63
2022-12-04T03:32:46.879Z,12.48
2022-12-04T03:35:20.050Z,11.13
2022-12-04T03:38:20.953Z,12.63
2022-12-04T03:41:04.332Z,14.05
2022-12-04T03:43:40.961Z,14.95
2022-12-04T03:46:34.480Z,14.68
2022-12-04T03:49:43.508Z,13.95
2022-12-04T03:52:28.347Z,13.07
2022-12-04T03:55:06.685Z,12.57
2022-12-04T03:57:41.674Z,11.63
2022-12-04T04:00:13.512Z,13.43
2022-12-04T04:02:46.895Z,12.57
2022-12-04T04:05:15.890Z,14.15
2022-12-04T04:07:48.933Z,15.32
2022-12-04T04:10:21.826Z,13.55
2022-12-04T04:13:17.188Z,13.30
2022-12-04T04:16:08.645Z,13.07
2022-12-04T04:18:54.340Z,13.07
2022-12-04T04:21:47.103Z,13.52
2022-12-04T04:24:32.898Z,13.48
2022-12-04T04:26:59.836Z,13.25
2022-12-04T04:29:27.313Z,14.18
2022-12-04T04:32:12.863Z,12.75
2022-12-04T04:35:18.319Z,12.77
2022-12-04T04:37:58.798Z,11.18
2022-12-04T04:40:43.439Z,10.50
2022-12-04T04:43:35.909Z,12.10
2022-12-04T04:46:11.615Z,13.60
2022-12-04T04:48:47.768Z,12.23
2022-12-04T04:51:15.256Z,13.43
2022-12-04T04:53:51.241Z,13.15
2022-12-04T04:56:18.801Z,13.93
2022-12-04T04:58:45.621Z,13.02
2022-12-04T05:01:20.078Z,10.75
2022-12-04T05:03:46.803Z,13.00
2022-12-04T05:06:13.785Z,13.25
2022-12-04T05:08:40.595Z,14.10
2022-12-04T05:11:13.224Z,12.98
2022-12-04T05:13:40.342Z,12.07
2022-12-04T05:16:11.334Z,14.02
2022-12-04T05:18:38.759Z,12.70
2022-12-04T05:21:18.289Z,12.50
2022-12-04T05:23:45.000Z,12.52
2022-12-04T05:26:11.964Z,12.80
2022-12-04T05:28:40.733Z,13.32
2022-12-04T05:31:07.685Z,12.77
2022-12-04T05:33:34.407Z,11.50
2022-12-04T05:36:05.183Z,12.32
2022-12-04T05:38:32.528Z,13.07
2022-12-04T06:02:24.684Z,12.93
2022-12-04T06:04:51.412Z,11.43
2022-12-04T06:07:18.138Z,11.65
2022-12-04T06:09:44.820Z,11.00
2022-12-04T06:12:11.517Z,12.15
2022-12-04T06:14:40.021Z,11.73
2022-12-04T06:17:07.259Z,12.02
2022-12-04T06:19:33.993Z,12.05
2022-12-04T06:22:00.679Z,11.45
2022-12-04T06:24:27.511Z,10.98
2022-12-04T06:29:46.136Z,10.35
2022-12-04T06:32:17.760Z,11.80
2022-12-04T06:34:46.305Z,11.90
2022-12-04T06:37:13.067Z,11.18
2022-12-04T06:39:39.744Z,11.48
2022-12-04T06:42:06.469Z,11.30
2022-12-04T06:44:33.196Z,11.20
2022-12-04T06:47:01.108Z,11.57
2022-12-04T06:49:28.060Z,11.27
2022-12-04T06:51:54.741Z,10.10
2022-12-04T06:54:21.455Z,11.07
2022-12-04T06:56:49.638Z,10.57
2022-12-04T06:59:16.333Z,10.80
2022-12-04T07:01:43.318Z,10.68
2022-12-04T07:04:10.043Z,11.45
2022-12-04T07:06:39.181Z,10.23
2022-12-04T07:09:14.938Z,10.43
2022-12-04T07:11:42.912Z,9.70
2022-12-04T07:14:10.949Z,10.60
2022-12-04T07:16:41.886Z,10.40
2022-12-04T07:19:11.562Z,10.20
2022-12-04T07:21:38.462Z,10.02
2022-12-04T07:24:05.688Z,10.20
2022-12-04T07:26:32.449Z,10.15
2022-12-04T07:28:59.975Z,9.85
2022-12-04T07:31:29.423Z,9.95
2022-12-04T07:33:57.830Z,10.80
2022-12-04T07:36:25.930Z,9.75
2022-12-04T07:38:54.286Z,9.40
2022-12-04T07:41:21.428Z,10.00
2022-12-04T07:43:48.244Z,9.25
2022-12-04T07:46:22.160Z,11.43
2022-12-04T07:48:48.933Z,9.90
2022-12-04T07:51:22.553Z,9.27
2022-12-04T07:53:51.625Z,8.85
2022-12-04T07:56:19.241Z,9.60
2022-12-04T07:58:46.377Z,10.25
2022-12-04T08:01:22.985Z,9.85
2022-12-04T08:03:52.934Z,9.45
2022-12-04T08:06:22.263Z,9.85
2022-12-04T08:08:49.979Z,8.90
2022-12-04T08:11:22.326Z,8.25
2022-12-04T08:16:16.449Z,8.45
2022-12-04T08:18:46.567Z,9.68
2022-12-04T08:21:16.832Z,8.63
2022-12-04T08:23:44.746Z,9.07
2022-12-04T08:26:12.805Z,9.75
2022-12-04T08:28:41.233Z,9.07
2022-12-04T08:31:35.425Z,9.88
2022-12-04T08:34:05.697Z,8.77
2022-12-04T08:36:34.430Z,8.20
2022-12-04T08:39:01.183Z,9.73
2022-12-04T08:41:28.183Z,8.25
2022-12-04T08:43:55.837Z,9.68
2022-12-04T08:46:24.647Z,8.50
2022-12-04T08:48:51.791Z,9.15
2022-12-04T08:51:22.553Z,8.90
2022-12-04T08:53:57.520Z,8.52
2022-12-04T08:56:27.719Z,8.50
2022-12-04T08:58:56.963Z,8.73
2022-12-04T09:01:25.439Z,8.45
2022-12-04T09:03:52.613Z,7.55
2022-12-04T09:06:19.948Z,7.13
2022-12-04T09:08:47.117Z,8.35
2022-12-04T09:11:20.435Z,13.77
2022-12-04T09:13:47.803Z,9.23
2022-12-04T09:16:18.374Z,9.07
2022-12-04T09:18:45.715Z,7.53
2022-12-04T09:21:16.268Z,6.80
2022-12-04T09:23:43.695Z,8.75
2022-12-04T09:26:29.802Z,7.95
2022-12-04T09:28:59.608Z,7.15
2022-12-04T09:31:26.480Z,8.52
2022-12-04T09:33:53.906Z,7.90
2022-12-04T09:36:21.514Z,9.70
2022-12-04T09:38:52.442Z,8.02
2022-12-04T09:41:46.401Z,7.22
2022-12-04T09:44:28.172Z,7.03
2022-12-04T09:47:21.168Z,7.53
2022-12-04T09:50:01.404Z,8.02
2022-12-04T09:53:02.734Z,8.00
2022-12-04T09:55:40.013Z,7.47
2022-12-04T09:58:17.130Z,7.63
2022-12-04T10:00:50.551Z,6.05
2022-12-04T10:03:21.334Z,7.38
2022-12-04T10:06:23.347Z,6.80
2022-12-04T10:09:17.279Z,7.00
2022-12-04T10:12:15.316Z,9.02
2022-12-04T10:15:22.653Z,7.07
2022-12-04T10:18:31.550Z,6.70
2022-12-04T10:21:50.509Z,7.70
2022-12-04T10:24:49.071Z,7.30
2022-12-04T10:27:27.318Z,6.60
2022-12-04T10:30:17.449Z,7.35
2022-12-04T10:32:45.719Z,8.20
2022-12-04T10:35:23.801Z,6.53
2022-12-04T10:37:57.827Z,6.57
2022-12-04T10:40:38.667Z,7.20
2022-12-04T10:43:42.840Z,6.53
2022-12-04T10:46:31.990Z,7.13
2022-12-04T10:49:27.696Z,6.97
2022-12-04T10:51:55.423Z,8.93
2022-12-04T10:54:33.371Z,6.75
2022-12-04T10:57:04.782Z,7.22
2022-12-04T10:59:32.483Z,7.30
2022-12-04T11:02:19.306Z,8.82
2022-12-04T11:04:59.939Z,11.10
2022-12-04T11:07:29.587Z,7.22
2022-12-04T11:10:03.239Z,16.67
2022-12-04T11:12:31.670Z,9.13
2022-12-04T11:15:07.172Z,8.27
2022-12-04T11:17:34.235Z,7.43
2022-12-04T11:20:06.806Z,6.97
2022-12-04T11:22:48.589Z,6.53
2022-12-04T11:25:19.546Z,7.38
2022-12-04T11:27:51.215Z,5.95
2022-12-04T11:30:30.740Z,6.65
2022-12-04T11:32:58.084Z,6.10
2022-12-04T11:35:27.994Z,6.18
2022-12-04T11:38:09.225Z,6.80
2022-12-04T11:40:36.864Z,7.65
2022-12-04T11:43:14.520Z,7.05
2022-12-04T11:45:42.180Z,6.53
2022-12-04T11:48:22.318Z,7.30
2022-12-04T11:51:05.963Z,7.35
2022-12-04T11:53:51.109Z,6.40
2022-12-04T11:57:05.446Z,6.63
2022-12-04T11:59:50.162Z,7.18
2022-12-04T12:03:03.408Z,7.80
2022-12-04T12:06:09.802Z,7.68
2022-12-04T12:09:03.456Z,6.30
2022-12-04T12:11:45.847Z,7.03
2022-12-04T12:17:37.580Z,6.00
2022-12-04T12:20:16.009Z,6.00
2022-12-04T12:23:02.425Z,6.60
2022-12-04T12:25:56.920Z,6.50
2022-12-04T12:28:54.617Z,7.25
2022-12-04T12:31:31.104Z,7.20
2022-12-04T12:34:07.221Z,7.10
2022-12-04T12:36:44.231Z,12.20
2022-12-04T12:39:40.726Z,8.70
2022-12-04T12:42:23.273Z,8.15
2022-12-04T12:45:04.821Z,8.15
2022-12-04T12:47:43.722Z,8.63
2022-12-04T12:50:40.801Z,15.02
2022-12-04T12:53:19.573Z,8.77
2022-12-04T12:55:54.265Z,8.32
2022-12-04T12:58:54.183Z,7.93
2022-12-04T13:01:59.979Z,7.95
2022-12-04T13:04:52.897Z,7.75
2022-12-04T13:07:31.440Z,6.65
2022-12-04T13:10:12.707Z,7.30
2022-12-04T13:12:56.713Z,7.28
2022-12-04T13:15:34.915Z,6.68
2022-12-04T13:18:03.487Z,7.50
2022-12-04T13:20:39.289Z,7.68
2022-12-04T13:23:25.262Z,7.88
2022-12-04T13:26:18.497Z,7.40
2022-12-04T13:29:20.297Z,7.30
2022-12-04T13:32:04.892Z,7.45
2022-12-04T13:34:34.275Z,6.93
2022-12-04T13:37:43.981Z,7.15
2022-12-04T13:40:42.252Z,9.63
2022-12-04T13:43:35.198Z,7.10
2022-12-04T13:46:06.974Z,7.45
2022-12-04T13:48:41.751Z,10.38
2022-12-04T13:51:14.946Z,8.23
2022-12-04T13:53:43.554Z,7.50
2022-12-04T13:56:27.105Z,7.57
2022-12-04T13:59:07.006Z,7.20
2022-12-04T14:01:45.072Z,9.40
2022-12-04T14:04:38.269Z,7.30
2022-12-04T14:07:05.338Z,7.28
2022-12-04T14:09:40.903Z,8.18
2022-12-04T14:12:13.757Z,7.57
2022-12-04T14:14:59.573Z,7.82
2022-12-04T14:17:32.153Z,9.63
2022-12-04T14:20:07.497Z,9.07
2022-12-04T14:22:37.508Z,7.60
2022-12-04T14:25:13.120Z,7.82
2022-12-04T14:27:42.958Z,8.85
2022-12-04T14:30:19.295Z,8.20
2022-12-04T14:32:49.933Z,8.10
2022-12-04T14:35:23.724Z,7.40
2022-12-04T14:38:00.681Z,8.35
2022-12-04T14:40:33.919Z,7.53
2022-12-04T14:43:01.005Z,7.60
2022-12-04T14:45:48.057Z,8.55
2022-12-04T14:48:35.959Z,7.32
2022-12-04T14:51:30.124Z,8.18
2022-12-04T14:54:31.099Z,8.02
2022-12-04T14:57:22.755Z,6.95
2022-12-04T14:59:53.089Z,7.60
2022-12-04T15:02:30.596Z,7.53
2022-12-04T15:04:57.748Z,8.35
2022-12-04T15:07:28.506Z,8.30
2022-12-04T15:10:18.299Z,7.70
2022-12-04T15:12:55.062Z,6.70
2022-12-04T15:15:27.351Z,6.97
2022-12-04T15:17:58.078Z,8.10
2022-12-04T15:20:26.259Z,7.15
2022-12-04T15:22:57.314Z,7.15
2022-12-04T15:25:33.601Z,7.25
2022-12-04T15:28:14.056Z,7.53
2022-12-04T15:30:44.314Z,5.80
2022-12-04T15:33:26.010Z,8.18
2022-12-04T15:36:17.231Z,7.45
2022-12-04T15:38:44.306Z,6.47
2022-12-04T15:41:35.106Z,6.53
2022-12-04T15:44:02.933Z,5.63
2022-12-04T15:46:36.041Z,6.43
2022-12-04T15:49:24.367Z,6.45
2022-12-04T15:51:51.314Z,5.80
2022-12-04T15:54:24.790Z,6.10
2022-12-04T15:57:04.522Z,5.75
2022-12-04T15:59:34.768Z,5.35
2022-12-04T16:02:23.568Z,6.55
2022-12-04T16:04:50.299Z,6.25
2022-12-04T16:07:29.835Z,6.53
2022-12-04T16:10:03.805Z,5.97
2022-12-04T16:12:32.671Z,6.65
2022-12-04T16:14:59.505Z,8.38
2022-12-04T16:17:33.969Z,8.40
2022-12-04T16:20:05.756Z,8.77
2022-12-04T16:22:32.514Z,8.93
2022-12-04T16:24:59.700Z,7.63
2022-12-04T16:27:26.872Z,8.35
2022-12-04T16:29:55.397Z,8.93
2022-12-04T16:32:29.141Z,7.70
2022-12-04T16:34:56.179Z,8.35
2022-12-04T16:37:24.224Z,8.25
2022-12-04T16:39:51.412Z,6.68
2022-12-04T16:42:29.367Z,8.45
2022-12-04T16:44:56.539Z,7.65
2022-12-04T16:47:23.462Z,7.35
2022-12-04T16:49:51.834Z,7.95
2022-12-04T16:52:19.812Z,8.43
2022-12-04T16:54:46.955Z,9.40
2022-12-04T16:57:13.715Z,10.13
2022-12-04T16:59:40.412Z,8.95
2022-12-04T17:02:18.021Z,9.65
2022-12-04T17:04:44.836Z,8.60
2022-12-04T17:07:12.095Z,9.15
2022-12-04T17:09:38.819Z,9.32
2022-12-04T17:12:05.600Z,9.93
2022-12-04T17:14:32.290Z,9.48
2022-12-04T17:16:58.971Z,9.05
2022-12-04T17:19:25.680Z,12.05
2022-12-04T17:21:52.394Z,10.48
2022-12-04T17:24:19.122Z,9.48
2022-12-04T17:26:45.811Z,10.63
2022-12-04T17:29:12.489Z,10.95
2022-12-04T17:31:39.307Z,10.70
2022-12-04T17:34:06.148Z,9.07
2022-12-04T17:36:32.859Z,10.02
2022-12-04T17:39:03.861Z,8.85
2022-12-04T17:41:30.610Z,9.27
2022-12-04T17:43:59.592Z,8.23
2022-12-04T17:46:26.392Z,9.75
2022-12-04T17:48:56.806Z,8.77
2022-12-04T17:51:24.916Z,9.70
2022-12-04T17:53:52.278Z,6.82
2022-12-04T17:56:22.121Z,9.68
2022-12-04T17:58:49.694Z,10.68
2022-12-04T18:01:20.644Z,9.70
2022-12-04T18:03:53.231Z,10.57
2022-12-04T18:06:27.387Z,10.43
2022-12-04T18:08:55.080Z,10.52
2022-12-04T18:11:25.959Z,10.77
2022-12-04T18:14:07.241Z,9.98
2022-12-04T18:16:40.807Z,10.70
2022-12-04T18:19:07.823Z,8.88
2022-12-04T18:21:35.014Z,9.23
2022-12-04T18:24:04.912Z,9.68
2022-12-04T18:26:45.455Z,12.57
2022-12-04T18:29:15.617Z,10.45
2022-12-04T18:31:42.391Z,12.02
2022-12-04T18:34:09.713Z,9.48
2022-12-04T18:36:41.235Z,9.35
2022-12-04T18:39:13.757Z,11.38
2022-12-04T18:41:40.738Z,13.27
2022-12-04T18:44:07.485Z,13.40
2022-12-04T18:46:34.233Z,13.52
2022-12-04T18:49:01.399Z,13.32
2022-12-04T18:51:37.339Z,11.15
2022-12-04T18:54:07.982Z,13.75
2022-12-04T18:56:35.819Z,11.70
2022-12-04T18:59:10.579Z,13.35
2022-12-04T19:01:38.954Z,13.40
2022-12-04T19:04:08.941Z,13.25
2022-12-04T19:06:42.844Z,11.27
2022-12-04T19:09:14.871Z,12.52
2022-12-04T19:11:42.281Z,11.65
2022-12-04T19:14:20.843Z,11.95
2022-12-04T19:16:50.712Z,12.55
2022-12-04T19:19:18.010Z,12.60
2022-12-04T19:21:44.920Z,12.32
2022-12-04T19:24:12.311Z,13.80
2022-12-04T19:26:40.067Z,13.30
2022-12-04T19:29:07.819Z,11.90
2022-12-04T19:31:36.953Z,13.35
2022-12-04T19:34:06.096Z,14.60
2022-12-04T19:36:34.875Z,15.15
2022-12-04T19:39:03.850Z,13.80
2022-12-04T19:41:34.169Z,15.35
2022-12-04T19:44:03.406Z,15.07
2022-12-04T19:46:34.677Z,15.63
2022-12-04T19:49:04.144Z,14.95
2022-12-04T19:51:33.100Z,15.32
2022-12-04T19:54:01.109Z,13.25
2022-12-04T19:56:30.884Z,14.80
2022-12-04T19:59:01.871Z,14.90
2022-12-04T20:01:30.361Z,13.95
2022-12-04T20:03:59.804Z,14.00
2022-12-04T20:06:28.682Z,13.88
2022-12-04T20:09:03.013Z,16.58
2022-12-04T20:11:30.883Z,13.40
2022-12-04T20:14:00.909Z,13.93
2022-12-04T20:16:31.193Z,14.18
2022-12-04T20:18:58.951Z,13.30
2022-12-04T20:21:30.138Z,12.95
2022-12-04T20:24:01.379Z,13.93
2022-12-04T20:26:33.168Z,8.68
2022-12-04T20:29:01.560Z,12.43
2022-12-04T20:31:35.139Z,11.65
2022-12-04T20:34:05.487Z,12.30
2022-12-04T20:36:40.972Z,14.23
2022-12-04T20:39:10.027Z,13.38
2022-12-04T20:41:37.341Z,14.88
2022-12-04T20:44:06.653Z,15.75
2022-12-04T20:46:37.691Z,14.00
2022-12-04T20:49:13.382Z,16.45
2022-12-04T20:51:44.110Z,15.15
2022-12-04T20:54:20.605Z,13.55
2022-12-04T20:56:48.817Z,14.68
2022-12-04T20:59:18.060Z,13.93
2022-12-04T21:01:44.892Z,15.02
2022-12-04T21:04:12.917Z,13.18
2022-12-04T21:06:41.482Z,12.02
2022-12-04T21:09:14.046Z,12.60
2022-12-04T21:11:44.599Z,13.63
2022-12-04T21:14:39.967Z,14.35
2022-12-04T21:17:09.272Z,13.88
2022-12-04T21:19:36.038Z,14.73
2022-12-04T21:22:02.802Z,12.15
2022-12-04T21:24:32.429Z,15.25
2022-12-04T21:26:59.103Z,13.32
2022-12-04T21:29:25.945Z,15.18
2022-12-04T21:31:52.655Z,17.85
2022-12-04T21:34:19.413Z,17.77
2022-12-04T21:36:48.695Z,17.38
2022-12-04T21:39:15.625Z,15.48
2022-12-04T21:42:01.275Z,15.93
2022-12-04T21:44:28.324Z,17.02
2022-12-04T21:46:55.198Z,15.18
2022-12-04T21:49:22.283Z,17.67
2022-12-04T21:51:57.151Z,19.15
2022-12-04T21:54:26.011Z,18.42
2022-12-04T21:56:52.741Z,20.15
2022-12-04T21:59:19.586Z,16.83
2022-12-04T22:01:46.437Z,19.50
2022-12-04T22:04:13.268Z,19.33
2022-12-04T22:06:40.456Z,19.27
2022-12-04T22:09:10.858Z,17.80
2022-12-04T22:11:41.194Z,16.42
2022-12-04T22:14:08.745Z,14.20
2022-12-04T22:16:41.284Z,19.35
2022-12-04T22:19:09.430Z,16.42
2022-12-04T22:21:36.310Z,17.60
2022-12-04T22:24:04.423Z,17.83
2022-12-04T22:26:31.875Z,17.23
2022-12-04T22:28:59.059Z,16.55
2022-12-04T22:31:29.888Z,16.73
2022-12-04T22:33:59.453Z,16.88
2022-12-04T22:36:30.884Z,17.67
2022-12-04T22:39:09.263Z,13.55
2022-12-04T22:41:37.316Z,16.73
2022-12-04T22:44:04.688Z,16.20
2022-12-04T22:46:31.533Z,17.00
2022-12-04T22:48:59.145Z,15.10
2022-12-04T22:51:26.090Z,15.65
2022-12-04T22:53:56.083Z,15.00
2022-12-04T22:56:32.277Z,17.10
2022-12-04T22:59:00.208Z,15.95
2022-12-04T23:01:30.613Z,18.63
2022-12-04T23:03:57.823Z,14.02
2022-12-04T23:06:27.513Z,16.75
2022-12-04T23:09:08.327Z,13.13
2022-12-04T23:11:36.798Z,14.63
2022-12-04T23:14:06.269Z,17.10
2022-12-04T23:16:37.026Z,16.83
2022-12-04T23:19:06.477Z,16.00
2022-12-04T23:21:33.876Z,14.70
2022-12-04T23:24:00.855Z,15.75
2022-12-04T23:26:33.441Z,15.80
2022-12-04T23:29:01.604Z,16.20
2022-12-04T23:31:30.133Z,15.98
2022-12-04T23:33:57.183Z,14.88
2022-12-04T23:36:24.351Z,14.93
2022-12-04T23:38:51.084Z,16.30
2022-12-04T23:41:24.911Z,14.23
2022-12-04T23:43:53.582Z,14.50
2022-12-04T23:46:32.271Z,13.07
2022-12-04T23:49:00.679Z,13.63
2022-12-04T23:51:27.805Z,14.63
2022-12-04T23:53:54.591Z,14.98
2022-12-04T23:56:24.973Z,17.10
2022-12-04T23:58:55.442Z,15.02
